createdAt,value
2022-12-23T00:01:30.194Z,48.53
2022-12-23T00:03:58.909Z,49.30
2022-12-23T00:06:26.689Z,48.47
2022-12-23T00:08:58.844Z,48.03
2022-12-23T00:11:27.754Z,48.23
2022-12-23T00:14:20.383Z,48.60
2022-12-23T00:16:48.738Z,47.47
2022-12-23T00:19:15.394Z,44.97
2022-12-23T00:21:42.027Z,49.63
2022-12-23T00:24:09.285Z,39.73
2022-12-23T00:26:35.960Z,52.30
2022-12-23T00:29:02.629Z,39.67
2022-12-23T00:31:29.626Z,41.23
2022-12-23T00:33:56.347Z,40.73
2022-12-23T00:36:27.523Z,38.90
2022-12-23T00:39:14.313Z,34.33
2022-12-23T00:41:59.688Z,39.50
2022-12-23T00:44:27.098Z,36.80
2022-12-23T00:46:53.839Z,31.03
2022-12-23T00:49:39.817Z,35.93
2022-12-23T00:52:08.946Z,34.73
2022-12-23T00:54:35.723Z,35.33
2022-12-23T00:57:02.563Z,36.70
2022-12-23T00:59:29.405Z,38.23
2022-12-23T01:02:15.162Z,33.77
2022-12-23T01:05:00.862Z,36.93
2022-12-23T01:07:27.860Z,44.67
2022-12-23T01:09:54.623Z,50.33
2022-12-23T01:12:21.542Z,52.03
2022-12-23T01:14:49.289Z,39.80
2022-12-23T01:17:16.103Z,30.63
2022-12-23T01:19:42.846Z,21.87
2022-12-23T01:22:09.924Z,22.20
2022-12-23T01:24:36.699Z,23.30
2022-12-23T01:27:03.846Z,26.33
2022-12-23T01:29:30.793Z,25.10
2022-12-23T01:31:57.644Z,27.20
2022-12-23T01:34:24.507Z,61.60
2022-12-23T01:36:51.500Z,63.63
2022-12-23T01:39:18.383Z,45.30
2022-12-23T01:42:03.713Z,46.60
2022-12-23T01:44:54.966Z,34.53
2022-12-23T01:47:28.123Z,40.37
2022-12-23T01:50:12.766Z,37.57
2022-12-23T01:53:07.331Z,34.63
2022-12-23T01:56:01.476Z,28.33
2022-12-23T01:58:35.030Z,29.47
2022-12-23T02:01:25.314Z,32.67
2022-12-23T02:03:56.467Z,32.97
2022-12-23T02:06:49.735Z,43.27
2022-12-23T02:09:19.500Z,44.20
2022-12-23T02:11:46.119Z,44.67
2022-12-23T02:14:50.049Z,37.33
2022-12-23T02:17:25.958Z,36.73
2022-12-23T02:20:11.323Z,34.80
2022-12-23T02:22:56.219Z,25.37
2022-12-23T02:25:23.494Z,25.93
2022-12-23T02:27:57.088Z,23.03
2022-12-23T02:30:39.427Z,28.20
2022-12-23T02:33:31.411Z,31.60
2022-12-23T02:36:02.923Z,28.77
2022-12-23T02:38:43.620Z,37.17
2022-12-23T02:41:32.168Z,29.53
2022-12-23T02:44:08.418Z,28.93
2022-12-23T02:46:56.144Z,38.77
2022-12-23T02:49:30.255Z,28.27
2022-12-23T02:51:59.802Z,26.42
2022-12-23T02:54:32.511Z,29.40
2022-12-23T02:57:03.716Z,30.17
2022-12-23T02:59:37.428Z,28.60
2022-12-23T03:02:04.354Z,33.90
2022-12-23T03:04:31.478Z,28.43
2022-12-23T03:07:04.359Z,29.23
2022-12-23T03:09:51.947Z,32.83
2022-12-23T03:12:47.759Z,27.98
2022-12-23T03:15:35.608Z,25.17
2022-12-23T03:18:16.980Z,36.67
2022-12-23T03:20:54.821Z,44.57
2022-12-23T03:23:28.706Z,44.37
2022-12-23T03:25:55.399Z,48.95
2022-12-23T03:28:37.683Z,47.40
2022-12-23T03:31:11.137Z,41.43
2022-12-23T03:33:42.542Z,44.27
2022-12-23T03:36:40.841Z,36.80
2022-12-23T03:39:13.129Z,35.43
2022-12-23T03:41:45.031Z,45.30
2022-12-23T03:44:32.010Z,42.93
2022-12-23T03:47:11.393Z,38.77
2022-12-23T03:49:56.084Z,46.00
2022-12-23T03:52:31.369Z,57.25
2022-12-23T03:55:03.773Z,47.47
2022-12-23T03:57:58.853Z,47.30
2022-12-23T04:00:30.979Z,63.03
2022-12-23T04:03:00.052Z,102.87
2022-12-23T04:05:30.383Z,81.23
2022-12-23T04:08:23.584Z,46.80
2022-12-23T04:10:50.424Z,33.60
2022-12-23T04:13:17.109Z,28.07
2022-12-23T04:15:44.305Z,31.13
2022-12-23T04:18:11.619Z,34.33
2022-12-23T04:20:38.467Z,42.23
2022-12-23T04:23:05.533Z,41.20
2022-12-23T04:25:32.351Z,44.57
2022-12-23T04:27:59.027Z,47.33
2022-12-23T04:30:33.306Z,38.60
2022-12-23T04:33:00.959Z,59.67
2022-12-23T04:35:27.995Z,65.73
2022-12-23T04:37:54.698Z,63.13
2022-12-23T04:40:21.508Z,56.40
2022-12-23T04:42:48.250Z,67.03
2022-12-23T04:45:15.188Z,65.80
2022-12-23T04:47:41.812Z,57.40
2022-12-23T04:50:13.483Z,56.60
2022-12-23T04:52:40.201Z,49.17
2022-12-23T04:55:07.455Z,43.17
2022-12-23T04:57:34.599Z,51.03
2022-12-23T05:00:01.258Z,59.67
2022-12-23T05:02:28.023Z,48.27
2022-12-23T05:04:55.029Z,42.17
2022-12-23T05:07:21.657Z,45.00
2022-12-23T05:09:48.314Z,48.10
2022-12-23T05:12:15.196Z,54.70
2022-12-23T05:14:41.825Z,61.83
2022-12-23T05:17:08.580Z,67.93
2022-12-23T05:19:35.762Z,76.47
2022-12-23T05:22:02.426Z,73.43
2022-12-23T05:24:29.091Z,90.60
2022-12-23T05:27:00.131Z,157.57
2022-12-23T05:29:27.393Z,95.90
2022-12-23T05:31:54.352Z,77.77
2022-12-23T05:34:21.977Z,56.10
2022-12-23T05:36:48.634Z,64.43
2022-12-23T05:39:15.441Z,53.37
2022-12-23T05:41:42.220Z,61.40
2022-12-23T05:44:08.915Z,56.60
2022-12-23T05:46:35.675Z,56.03
2022-12-23T05:49:02.620Z,61.63
2022-12-23T05:51:29.304Z,68.37
2022-12-23T05:53:56.083Z,73.03
2022-12-23T05:56:22.946Z,93.63
2022-12-23T05:58:49.607Z,92.27
2022-12-23T06:01:16.307Z,77.17
2022-12-23T06:03:43.449Z,91.80
2022-12-23T06:06:10.178Z,94.23
2022-12-23T06:08:36.927Z,92.00
2022-12-23T06:11:06.686Z,87.20
2022-12-23T06:13:33.381Z,84.70
2022-12-23T06:16:00.171Z,94.80
2022-12-23T06:18:27.087Z,93.53
2022-12-23T06:20:53.691Z,89.63
2022-12-23T06:23:20.358Z,94.17
2022-12-23T06:25:47.077Z,101.07
2022-12-23T06:28:13.894Z,86.93
2022-12-23T06:30:40.623Z,91.13
2022-12-23T06:33:07.456Z,82.57
2022-12-23T06:35:34.077Z,84.27
2022-12-23T06:38:00.832Z,82.77
2022-12-23T06:40:29.431Z,91.47
2022-12-23T06:42:56.088Z,106.70
2022-12-23T06:45:22.776Z,103.40
2022-12-23T06:47:49.520Z,114.23
2022-12-23T06:50:16.306Z,130.57
2022-12-23T06:52:43.009Z,116.40
2022-12-23T06:55:09.952Z,115.87
2022-12-23T06:57:36.747Z,118.53
2022-12-23T07:00:05.164Z,126.27
2022-12-23T07:02:32.108Z,123.00
2022-12-23T07:04:58.996Z,103.23
2022-12-23T07:07:25.655Z,101.80
2022-12-23T07:09:52.885Z,83.10
2022-12-23T07:12:19.515Z,100.60
2022-12-23T07:14:46.148Z,87.77
2022-12-23T07:17:12.938Z,105.78
2022-12-23T07:19:41.748Z,114.35
2022-12-23T07:22:10.193Z,113.00
2022-12-23T07:24:37.777Z,116.18
2022-12-23T07:27:04.856Z,115.95
2022-12-23T07:29:31.592Z,90.50
2022-12-23T07:31:58.438Z,92.18
2022-12-23T07:34:25.124Z,89.45
2022-12-23T07:36:51.816Z,97.07
2022-12-23T07:39:18.523Z,83.70
2022-12-23T07:41:45.248Z,69.43
2022-12-23T07:44:11.955Z,77.05
2022-12-23T07:46:38.900Z,68.05
2022-12-23T07:49:05.646Z,65.25
2022-12-23T07:51:32.288Z,69.68
2022-12-23T07:53:59.168Z,83.55
2022-12-23T07:56:26.461Z,81.85
2022-12-23T07:58:53.995Z,80.95
2022-12-23T08:01:22.129Z,74.80
2022-12-23T08:03:49.741Z,78.45
2022-12-23T08:06:17.067Z,83.18
2022-12-23T08:08:46.040Z,86.60
2022-12-23T08:11:14.501Z,79.70
2022-12-23T08:13:42.768Z,67.03
2022-12-23T08:16:11.108Z,68.07
2022-12-23T08:18:40.078Z,69.07
2022-12-23T08:21:11.913Z,73.28
2022-12-23T08:23:38.675Z,73.10
2022-12-23T08:26:12.575Z,59.15
2022-12-23T08:28:41.056Z,57.42
2022-12-23T08:31:17.862Z,87.05
2022-12-23T08:33:46.997Z,68.90
2022-12-23T08:36:22.392Z,60.95
2022-12-23T08:38:50.798Z,50.25
2022-12-23T08:41:20.944Z,49.38
2022-12-23T08:43:47.917Z,55.15
2022-12-23T08:46:15.061Z,74.20
2022-12-23T08:48:48.690Z,72.68
2022-12-23T08:51:18.615Z,59.95
2022-12-23T08:53:45.921Z,57.47
2022-12-23T08:56:23.688Z,60.20
2022-12-23T08:58:52.828Z,52.78
2022-12-23T09:01:22.766Z,52.70
2022-12-23T09:03:51.117Z,61.95
2022-12-23T09:06:28.278Z,57.60
2022-12-23T09:08:56.277Z,43.25
2022-12-23T09:11:25.520Z,44.13
2022-12-23T09:13:52.468Z,44.08
2022-12-23T09:16:20.301Z,38.47
2022-12-23T09:18:47.115Z,37.70
2022-12-23T09:21:17.999Z,45.70
2022-12-23T09:23:44.916Z,35.80
2022-12-23T09:26:29.324Z,31.83
2022-12-23T09:28:57.050Z,26.63
2022-12-23T09:31:24.761Z,21.08
2022-12-23T09:33:53.840Z,17.70
2022-12-23T09:36:22.653Z,13.48
2022-12-23T09:38:55.279Z,11.07
2022-12-23T09:41:31.625Z,22.77
2022-12-23T09:44:35.182Z,23.45
2022-12-23T09:47:05.963Z,14.98
2022-12-23T09:49:34.322Z,16.05
2022-12-23T09:52:05.589Z,20.48
2022-12-23T09:54:58.351Z,22.02
2022-12-23T09:57:40.339Z,21.08
2022-12-23T10:00:13.126Z,21.23
2022-12-23T10:03:04.732Z,26.08
2022-12-23T10:05:49.567Z,19.95
2022-12-23T10:08:39.596Z,18.70
2022-12-23T10:11:21.189Z,16.08
2022-12-23T10:13:50.371Z,12.88
2022-12-23T10:16:23.328Z,13.38
2022-12-23T10:19:20.561Z,13.95
2022-12-23T10:21:55.992Z,12.95
2022-12-23T10:24:33.424Z,17.27
2022-12-23T10:27:11.960Z,18.40
2022-12-23T10:29:38.680Z,17.33
2022-12-23T10:32:27.971Z,22.92
2022-12-23T10:35:26.671Z,22.73
2022-12-23T10:38:03.506Z,20.67
2022-12-23T10:40:45.588Z,23.52
2022-12-23T10:43:15.153Z,77.97
2022-12-23T10:46:13.974Z,32.38
2022-12-23T10:48:40.612Z,21.65
2022-12-23T10:51:15.253Z,21.48
2022-12-23T10:54:04.823Z,17.50
2022-12-23T10:56:32.016Z,13.13
2022-12-23T10:59:01.373Z,14.80
2022-12-23T11:01:31.339Z,34.50
2022-12-23T11:04:01.743Z,49.90
2022-12-23T11:06:36.560Z,18.20
2022-12-23T11:09:05.608Z,14.90
2022-12-23T11:12:01.966Z,12.63
2022-12-23T11:14:33.086Z,14.88
2022-12-23T11:17:00.343Z,12.15
2022-12-23T11:19:27.170Z,11.52
2022-12-23T11:21:59.580Z,13.45
2022-12-23T11:24:39.556Z,11.93
2022-12-23T11:27:16.381Z,10.55
2022-12-23T11:32:22.593Z,9.82
2022-12-23T11:34:50.843Z,15.80
2022-12-23T11:37:36.970Z,18.23
2022-12-23T11:40:07.545Z,18.83
2022-12-23T11:42:35.077Z,9.68
2022-12-23T11:45:06.869Z,9.93
2022-12-23T11:47:41.042Z,11.10
2022-12-23T11:50:29.393Z,16.98
2022-12-23T11:53:04.468Z,22.08
2022-12-23T11:55:33.014Z,24.30
2022-12-23T11:58:02.527Z,10.93
2022-12-23T12:00:42.827Z,9.93
2022-12-23T12:03:19.211Z,12.57
2022-12-23T12:05:55.533Z,14.02
2022-12-23T12:08:28.287Z,13.02
2022-12-23T12:11:05.446Z,18.25
2022-12-23T12:13:37.838Z,18.17
2022-12-23T12:16:30.829Z,15.52
2022-12-23T12:19:04.143Z,13.38
2022-12-23T12:21:37.759Z,96.45
2022-12-23T12:24:19.198Z,16.92
2022-12-23T12:26:51.655Z,16.25
2022-12-23T12:29:39.321Z,14.95
2022-12-23T12:32:17.325Z,16.55
2022-12-23T12:35:01.114Z,38.45
2022-12-23T12:37:43.119Z,44.15
2022-12-23T12:40:29.618Z,9.38
2022-12-23T12:43:34.760Z,12.25
2022-12-23T12:46:23.161Z,11.57
2022-12-23T12:49:25.221Z,12.20
2022-12-23T12:52:03.608Z,9.00
2022-12-23T12:54:53.047Z,8.13
2022-12-23T12:57:22.659Z,18.30
2022-12-23T12:59:56.388Z,16.73
2022-12-23T13:02:56.001Z,10.90
2022-12-23T13:05:41.400Z,15.57
2022-12-23T13:08:29.145Z,19.20
2022-12-23T13:11:05.809Z,16.83
2022-12-23T13:13:37.627Z,13.88
2022-12-23T13:16:38.271Z,14.45
2022-12-23T13:19:27.217Z,9.98
2022-12-23T13:22:14.153Z,16.52
2022-12-23T13:24:40.775Z,9.07
2022-12-23T13:27:46.927Z,8.02
2022-12-23T13:30:20.106Z,6.60
2022-12-23T13:32:56.825Z,7.35
2022-12-23T13:35:32.230Z,5.60
2022-12-23T13:38:17.764Z,7.60
2022-12-23T13:43:41.923Z,7.45
2022-12-23T13:46:35.726Z,49.05
2022-12-23T13:49:11.478Z,16.42
2022-12-23T13:51:52.294Z,12.95
2022-12-23T13:54:25.016Z,13.50
2022-12-23T13:57:10.287Z,22.08
2022-12-23T14:00:02.973Z,11.98
2022-12-23T14:02:37.651Z,16.20
2022-12-23T14:05:09.304Z,19.05
2022-12-23T14:07:38.486Z,14.52
2022-12-23T14:10:20.167Z,9.27
2022-12-23T14:12:47.243Z,7.20
2022-12-23T14:15:22.504Z,8.05
2022-12-23T14:18:10.793Z,23.63
2022-12-23T14:20:43.570Z,25.30
2022-12-23T14:23:28.541Z,19.77
2022-12-23T14:26:18.364Z,31.08
2022-12-23T14:29:21.592Z,23.42
2022-12-23T14:31:57.424Z,13.48
2022-12-23T14:34:31.677Z,21.67
2022-12-23T14:37:20.574Z,20.67
2022-12-23T14:39:48.641Z,35.53
2022-12-23T14:42:41.259Z,52.20
2022-12-23T14:45:41.592Z,67.18
2022-12-23T14:48:33.385Z,69.65
2022-12-23T14:51:00.045Z,80.97
2022-12-23T14:53:29.785Z,45.72
2022-12-23T14:56:21.101Z,64.25
2022-12-23T14:59:18.713Z,400.75
2022-12-23T15:01:54.263Z,132.52
2022-12-23T15:04:41.934Z,103.03
2022-12-23T15:07:24.681Z,104.57
2022-12-23T15:10:00.754Z,107.40
2022-12-23T15:12:36.489Z,118.35
2022-12-23T15:15:07.628Z,131.20
2022-12-23T15:17:37.028Z,153.98
2022-12-23T15:20:11.357Z,153.70
2022-12-23T15:22:39.791Z,162.20
2022-12-23T15:25:24.117Z,187.25
2022-12-23T15:27:55.910Z,144.30
2022-12-23T15:30:28.239Z,117.38
2022-12-23T15:33:00.212Z,109.88
2022-12-23T15:35:33.593Z,83.47
2022-12-23T15:38:02.255Z,58.20
2022-12-23T15:40:35.729Z,93.93
2022-12-23T15:43:12.621Z,111.97
2022-12-23T15:45:42.221Z,101.50
2022-12-23T15:48:31.271Z,102.75
2022-12-23T15:51:49.609Z,108.75
2022-12-23T15:54:31.600Z,111.85
2022-12-23T15:57:01.285Z,103.80
2022-12-23T15:59:33.162Z,91.40
2022-12-23T16:02:32.579Z,95.25
2022-12-23T16:05:03.015Z,115.85
2022-12-23T16:07:40.711Z,147.98
2022-12-23T16:10:19.606Z,126.38
2022-12-23T16:12:49.335Z,130.50
2022-12-23T16:15:27.216Z,114.75
2022-12-23T16:18:20.075Z,122.18
2022-12-23T16:20:53.762Z,156.82
2022-12-23T16:23:21.456Z,150.88
2022-12-23T16:25:51.155Z,134.05
2022-12-23T16:28:26.691Z,131.05
2022-12-23T16:30:56.643Z,137.45
2022-12-23T16:33:26.378Z,205.93
2022-12-23T16:35:55.039Z,678.42
2022-12-23T16:38:26.606Z,320.08
2022-12-23T16:40:55.714Z,256.40
2022-12-23T16:43:24.275Z,230.18
2022-12-23T16:45:54.733Z,204.95
2022-12-23T16:48:30.799Z,173.27
2022-12-23T16:50:58.160Z,186.88
2022-12-23T16:53:24.961Z,199.52
2022-12-23T16:55:56.871Z,177.02
2022-12-23T16:58:27.096Z,131.95
2022-12-23T17:00:53.913Z,133.68
2022-12-23T17:03:21.073Z,150.10
2022-12-23T17:05:48.439Z,133.23
2022-12-23T17:08:15.467Z,141.93
2022-12-23T17:10:44.644Z,138.15
2022-12-23T17:13:18.585Z,94.10
2022-12-23T17:15:45.569Z,98.75
2022-12-23T17:18:14.227Z,152.43
2022-12-23T17:20:42.274Z,152.82
2022-12-23T17:23:24.148Z,142.48
2022-12-23T17:25:51.112Z,121.30
2022-12-23T17:28:17.836Z,130.43
2022-12-23T17:30:44.708Z,171.57
2022-12-23T17:33:19.584Z,134.18
2022-12-23T17:35:46.431Z,129.32
2022-12-23T17:38:14.699Z,158.57
2022-12-23T17:40:43.732Z,156.18
2022-12-23T17:43:18.067Z,163.50
2022-12-23T17:45:45.900Z,180.98
2022-12-23T17:48:19.931Z,168.18
2022-12-23T17:50:48.185Z,171.48
2022-12-23T17:53:16.659Z,154.65
2022-12-23T17:55:43.897Z,152.63
2022-12-23T17:58:10.896Z,170.77
2022-12-23T18:00:38.599Z,172.57
2022-12-23T18:03:21.561Z,141.43
2022-12-23T18:05:48.266Z,135.75
2022-12-23T18:08:15.439Z,203.88
2022-12-23T18:10:42.505Z,164.38
2022-12-23T18:13:15.656Z,174.53
2022-12-23T18:15:43.824Z,208.63
2022-12-23T18:18:24.147Z,192.23
2022-12-23T18:20:57.293Z,185.38
2022-12-23T18:23:32.301Z,161.75
2022-12-23T18:25:59.905Z,163.93
2022-12-23T18:28:27.369Z,206.32
2022-12-23T18:30:56.641Z,214.63
2022-12-23T18:33:28.924Z,229.13
2022-12-23T18:35:56.112Z,183.27
2022-12-23T18:38:23.061Z,179.30
2022-12-23T18:40:52.715Z,174.27
2022-12-23T18:43:22.017Z,170.93
2022-12-23T18:45:53.297Z,150.10
2022-12-23T18:48:21.781Z,138.38
2022-12-23T18:50:48.655Z,143.55
2022-12-23T18:53:24.704Z,141.02
2022-12-23T18:55:52.825Z,98.63
2022-12-23T18:58:20.162Z,134.77
2022-12-23T19:00:48.802Z,151.97
2022-12-23T19:03:27.371Z,144.17
2022-12-23T19:05:56.066Z,144.03
2022-12-23T19:08:26.979Z,150.57
2022-12-23T19:10:54.972Z,156.27
2022-12-23T19:13:21.997Z,154.03
2022-12-23T19:15:48.949Z,147.87
2022-12-23T19:18:18.987Z,147.57
2022-12-23T19:20:47.257Z,189.57
2022-12-23T19:23:14.621Z,197.20
2022-12-23T19:25:43.522Z,195.90
2022-12-23T19:28:13.300Z,194.70
2022-12-23T19:30:41.682Z,180.37
2022-12-23T19:33:09.062Z,166.13
2022-12-23T19:35:35.755Z,180.40
2022-12-23T19:38:02.364Z,135.43
2022-12-23T19:40:29.289Z,111.60
2022-12-23T19:42:56.655Z,101.83
2022-12-23T19:45:23.349Z,85.57
2022-12-23T19:47:50.073Z,86.77
2022-12-23T19:50:17.179Z,103.47
2022-12-23T19:52:43.833Z,100.17
2022-12-23T19:55:10.525Z,115.63
2022-12-23T19:57:37.515Z,121.77
2022-12-23T20:00:05.455Z,118.57
2022-12-23T20:02:32.179Z,152.23
2022-12-23T20:04:58.903Z,136.27
2022-12-23T20:07:25.556Z,150.87
2022-12-23T20:09:52.544Z,173.63
2022-12-23T20:12:19.570Z,95.97
2022-12-23T20:14:46.269Z,102.23
2022-12-23T20:17:12.938Z,92.13
2022-12-23T20:19:45.816Z,102.83
2022-12-23T20:22:13.172Z,125.40
2022-12-23T20:24:40.611Z,94.87
2022-12-23T20:27:11.341Z,126.37
2022-12-23T20:29:39.328Z,90.73
2022-12-23T20:32:06.355Z,153.67
2022-12-23T20:34:38.670Z,144.60
2022-12-23T20:37:06.760Z,125.83
2022-12-23T20:39:33.531Z,135.80
2022-12-23T20:42:00.213Z,138.83
2022-12-23T20:44:36.643Z,156.80
2022-12-23T20:47:07.257Z,167.40
2022-12-23T20:49:34.266Z,256.43
2022-12-23T20:52:01.327Z,130.83
2022-12-23T20:54:33.203Z,124.87
2022-12-23T20:57:01.444Z,85.70
2022-12-23T20:59:28.273Z,71.53
2022-12-23T21:01:55.132Z,75.40
2022-12-23T21:04:22.913Z,89.20
2022-12-23T21:06:49.902Z,97.93
2022-12-23T21:09:17.077Z,109.53
2022-12-23T21:11:46.197Z,140.70
2022-12-23T21:14:13.630Z,130.80
2022-12-23T21:16:40.929Z,125.27
2022-12-23T21:19:18.073Z,123.00
2022-12-23T21:21:45.800Z,149.20
2022-12-23T21:24:13.114Z,161.53
2022-12-23T21:26:40.483Z,101.43
2022-12-23T21:29:09.377Z,118.27
2022-12-23T21:31:39.062Z,93.13
2022-12-23T21:34:06.629Z,72.73
2022-12-23T21:36:37.124Z,206.10
2022-12-23T21:39:05.323Z,106.37
2022-12-23T21:41:37.811Z,94.63
2022-12-23T21:44:05.228Z,86.87
2022-12-23T21:46:31.956Z,104.67
2022-12-23T21:48:59.470Z,92.90
2022-12-23T21:51:39.026Z,127.90
2022-12-23T21:54:07.531Z,119.03
2022-12-23T21:56:34.385Z,107.73
2022-12-23T21:59:03.548Z,107.40
2022-12-23T22:01:31.008Z,102.17
2022-12-23T22:03:57.975Z,104.73
2022-12-23T22:06:34.486Z,85.77
2022-12-23T22:09:01.238Z,58.03
2022-12-23T22:11:30.348Z,77.03
2022-12-23T22:13:58.610Z,73.90
2022-12-23T22:16:27.631Z,85.93
2022-12-23T22:18:55.722Z,95.93
2022-12-23T22:21:24.567Z,76.90
2022-12-23T22:23:52.687Z,58.17
2022-12-23T22:26:25.851Z,52.37
2022-12-23T22:28:54.591Z,50.67
2022-12-23T22:31:24.304Z,55.93
2022-12-23T22:33:51.038Z,63.70
2022-12-23T22:36:18.140Z,72.40
2022-12-23T22:38:54.741Z,65.10
2022-12-23T22:41:22.030Z,61.57
2022-12-23T22:43:49.124Z,59.17
2022-12-23T22:46:17.023Z,59.57
2022-12-23T22:48:44.811Z,61.27
2022-12-23T22:51:22.745Z,67.93
2022-12-23T22:53:50.022Z,60.47
2022-12-23T22:56:18.248Z,66.60
2022-12-23T22:58:45.203Z,64.70
2022-12-23T23:01:28.587Z,69.43
2022-12-23T23:03:57.842Z,68.37
2022-12-23T23:06:29.522Z,43.50
2022-12-23T23:08:57.296Z,36.60
2022-12-23T23:11:25.270Z,53.17
2022-12-23T23:13:52.182Z,70.73
2022-12-23T23:16:19.173Z,64.83
2022-12-23T23:18:46.231Z,81.03
2022-12-23T23:21:14.188Z,75.43
2022-12-23T23:23:41.072Z,104.53
2022-12-23T23:26:11.059Z,96.33
2022-12-23T23:28:39.716Z,114.43
2022-12-23T23:31:39.613Z,233.13
2022-12-23T23:33:53.828Z,138.13
2022-12-23T23:36:20.587Z,92.10
2022-12-23T23:38:47.296Z,74.10
2022-12-23T23:41:18.901Z,81.57
2022-12-23T23:43:49.513Z,62.90
2022-12-23T23:46:16.266Z,52.23
2022-12-23T23:48:43.007Z,57.23
2022-12-23T23:51:09.688Z,66.57
2022-12-23T23:53:36.452Z,82.77
2022-12-23T23:56:06.434Z,117.60
2022-12-23T23:58:34.838Z,113.43
